createdAt,value
2022-08-16T00:00:04.175Z,83.46
2022-08-16T00:00:56.925Z,83.76
2022-08-16T00:01:55.963Z,83.46
2022-08-16T00:02:55.944Z,83.26
2022-08-16T00:03:56.144Z,82.85
2022-08-16T00:04:59.937Z,82.65
2022-08-16T00:05:57.449Z,82.59
2022-08-16T00:06:55.853Z,82.65
2022-08-16T00:07:56.941Z,82.28
2022-08-16T00:08:55.846Z,82.69
2022-08-16T00:09:55.837Z,82.69
2022-08-16T00:10:55.904Z,83.50
2022-08-16T00:11:55.919Z,83.50
2022-08-16T00:12:55.745Z,83.50
2022-08-16T00:13:55.838Z,82.69
2022-08-16T00:14:56.514Z,83.19
2022-08-16T00:15:55.902Z,83.60
2022-08-16T00:17:05.551Z,83.33
2022-08-16T00:17:57.496Z,83.84
2022-08-16T00:18:55.781Z,83.64
2022-08-16T00:19:55.731Z,83.60
2022-08-16T00:20:55.729Z,83.94
2022-08-16T00:22:01.005Z,84.14
2022-08-16T00:22:56.699Z,84.65
2022-08-16T00:23:55.705Z,83.84
2022-08-16T00:24:55.680Z,84.04
2022-08-16T00:26:36.408Z,84.25
2022-08-16T00:26:56.654Z,83.94
2022-08-16T00:27:55.656Z,83.98
2022-08-16T00:28:55.655Z,83.88
2022-08-16T00:30:08.672Z,84.39
2022-08-16T00:30:56.643Z,84.89
2022-08-16T00:32:00.855Z,84.63
2022-08-16T00:32:57.203Z,85.03
2022-08-16T00:33:55.619Z,84.99
2022-08-16T00:34:55.575Z,84.89
2022-08-16T00:35:56.586Z,84.33
2022-08-16T00:36:55.915Z,84.02
2022-08-16T00:37:58.397Z,84.53
2022-08-16T00:38:56.317Z,84.53
2022-08-16T00:39:57.284Z,84.93
2022-08-16T00:40:55.639Z,84.63
2022-08-16T00:41:55.505Z,84.73
2022-08-16T00:42:55.493Z,84.93
2022-08-16T00:43:55.490Z,84.93
2022-08-16T00:44:55.523Z,84.08
2022-08-16T00:46:00.273Z,83.92
2022-08-16T00:47:02.468Z,84.73
2022-08-16T00:47:56.599Z,84.53
2022-08-16T00:48:55.502Z,84.22
2022-08-16T00:49:56.295Z,84.33
2022-08-16T00:50:55.634Z,84.02
2022-08-16T00:51:55.754Z,84.63
2022-08-16T00:52:55.796Z,83.92
2022-08-16T00:53:55.784Z,84.53
2022-08-16T00:54:55.406Z,84.53
2022-08-16T00:55:55.368Z,84.97
2022-08-16T00:56:58.035Z,84.73
2022-08-16T00:57:58.500Z,85.07
2022-08-16T00:58:55.336Z,84.67
2022-08-16T00:59:59.654Z,85.48
2022-08-16T01:00:56.441Z,85.68
2022-08-16T01:01:55.341Z,85.58
2022-08-16T01:02:55.295Z,85.38
2022-08-16T01:03:55.294Z,85.88
2022-08-16T01:05:10.455Z,85.78
2022-08-16T01:05:56.345Z,85.38
2022-08-16T01:07:01.347Z,85.78
2022-08-16T01:07:56.247Z,85.88
2022-08-16T01:08:55.244Z,85.82
2022-08-16T01:09:55.233Z,86.33
2022-08-16T01:10:55.211Z,86.22
2022-08-16T01:11:55.491Z,86.13
2022-08-16T01:12:55.201Z,85.52
2022-08-16T01:13:55.238Z,85.82
2022-08-16T01:14:55.275Z,85.93
2022-08-16T01:15:55.215Z,86.02
2022-08-16T01:16:55.308Z,86.22
2022-08-16T01:17:56.176Z,86.68
2022-08-16T01:18:55.149Z,86.68
2022-08-16T01:19:56.891Z,87.34
2022-08-16T01:20:55.171Z,87.24
2022-08-16T01:21:55.122Z,87.59
2022-08-16T01:22:55.838Z,87.54
2022-08-16T01:24:00.847Z,87.54
2022-08-16T01:24:56.202Z,87.34
2022-08-16T01:26:00.025Z,87.14
2022-08-16T01:26:56.519Z,87.14
2022-08-16T01:27:56.177Z,87.34
2022-08-16T01:28:55.140Z,86.83
2022-08-16T01:29:57.703Z,86.94
2022-08-16T01:30:55.052Z,87.30
2022-08-16T01:31:55.030Z,87.34
2022-08-16T01:33:02.137Z,87.40
2022-08-16T01:33:54.968Z,87.20
2022-08-16T01:34:56.783Z,86.79
2022-08-16T01:35:56.224Z,86.02
2022-08-16T01:36:58.154Z,85.82
2022-08-16T01:37:54.954Z,85.62
2022-08-16T01:38:57.251Z,85.93
2022-08-16T01:39:54.964Z,86.47
2022-08-16T01:40:54.936Z,86.63
2022-08-16T01:41:55.104Z,86.16
2022-08-16T01:42:55.482Z,85.15
2022-08-16T01:43:54.968Z,85.25
2022-08-16T01:44:54.989Z,85.46
2022-08-16T01:45:57.843Z,85.46
2022-08-16T01:46:54.974Z,85.96
2022-08-16T01:47:54.997Z,85.96
2022-08-16T01:48:54.941Z,85.76
2022-08-16T01:50:42.000Z,85.90
2022-08-16T01:51:08.533Z,85.80
2022-08-16T01:51:55.831Z,85.86
2022-08-16T01:52:54.915Z,85.86
2022-08-16T01:53:55.806Z,86.07
2022-08-16T01:54:54.824Z,86.68
2022-08-16T01:55:54.802Z,87.12
2022-08-16T01:56:54.784Z,86.21
2022-08-16T01:57:56.442Z,86.71
2022-08-16T01:58:54.939Z,87.02
2022-08-16T01:59:54.998Z,87.02
2022-08-16T02:00:54.887Z,87.02
2022-08-16T02:02:00.018Z,86.71
2022-08-16T02:02:55.782Z,87.32
2022-08-16T02:03:58.647Z,87.63
2022-08-16T02:04:55.707Z,87.93
2022-08-16T02:05:54.701Z,88.03
2022-08-16T02:06:54.686Z,87.32
2022-08-16T02:07:54.739Z,87.63
2022-08-16T02:08:54.671Z,88.84
2022-08-16T02:09:58.638Z,88.44
2022-08-16T02:10:55.692Z,89.55
2022-08-16T02:11:54.632Z,88.84
2022-08-16T02:13:00.103Z,87.83
2022-08-16T02:13:54.916Z,87.12
2022-08-16T02:14:54.628Z,87.08
2022-08-16T02:15:54.595Z,86.82
2022-08-16T02:16:54.600Z,86.71
2022-08-16T02:17:54.593Z,86.61
2022-08-16T02:18:54.570Z,86.41
2022-08-16T02:19:58.688Z,86.65
2022-08-16T02:20:55.558Z,86.86
2022-08-16T02:22:08.904Z,87.06
2022-08-16T02:22:55.562Z,87.06
2022-08-16T02:23:55.788Z,87.16
2022-08-16T02:24:54.788Z,86.96
2022-08-16T02:25:54.704Z,86.65
2022-08-16T02:26:54.582Z,87.00
2022-08-16T02:27:54.614Z,87.10
2022-08-16T02:28:54.580Z,87.51
2022-08-16T02:30:04.900Z,87.81
2022-08-16T02:30:55.538Z,88.01
2022-08-16T02:32:03.842Z,87.30
2022-08-16T02:32:55.515Z,87.92
2022-08-16T02:33:54.667Z,88.07
2022-08-16T02:34:56.350Z,87.81
2022-08-16T02:35:58.163Z,87.71
2022-08-16T02:36:55.402Z,87.71
2022-08-16T02:37:56.157Z,87.61
2022-08-16T02:38:54.450Z,87.81
2022-08-16T02:39:54.483Z,87.92
2022-08-16T02:40:54.859Z,87.71
2022-08-16T02:41:54.347Z,87.71
2022-08-16T02:42:54.406Z,87.40
2022-08-16T02:43:54.403Z,87.30
2022-08-16T02:44:54.414Z,87.92
2022-08-16T02:45:54.464Z,89.13
2022-08-16T02:46:54.402Z,89.33
2022-08-16T02:48:01.775Z,89.43
2022-08-16T02:48:55.377Z,89.64
2022-08-16T02:50:52.874Z,89.64
2022-08-16T02:51:06.784Z,89.23
2022-08-16T02:51:55.242Z,89.50
2022-08-16T02:52:54.313Z,90.61
2022-08-16T02:53:54.242Z,90.25
2022-08-16T02:54:55.261Z,90.61
2022-08-16T02:55:54.210Z,90.11
2022-08-16T02:56:54.254Z,89.39
2022-08-16T02:57:54.775Z,89.39
2022-08-16T02:58:54.319Z,88.21
2022-08-16T02:59:54.207Z,87.67
2022-08-16T03:00:56.075Z,87.61
2022-08-16T03:01:55.413Z,87.61
2022-08-16T03:02:55.969Z,87.81
2022-08-16T03:04:39.667Z,88.42
2022-08-16T03:04:55.127Z,88.73
2022-08-16T03:05:54.158Z,88.82
2022-08-16T03:06:56.823Z,88.52
2022-08-16T03:07:54.086Z,88.32
2022-08-16T03:08:54.138Z,88.01
2022-08-16T03:09:54.067Z,88.67
2022-08-16T03:10:54.068Z,88.76
2022-08-16T03:11:55.161Z,87.85
2022-08-16T03:12:56.290Z,87.92
2022-08-16T03:13:56.541Z,87.95
2022-08-16T03:14:54.024Z,87.95
2022-08-16T03:15:54.041Z,87.95
2022-08-16T03:16:59.052Z,88.06
2022-08-16T03:17:55.079Z,88.36
2022-08-16T03:18:54.005Z,88.46
2022-08-16T03:19:59.800Z,88.97
2022-08-16T03:20:55.702Z,88.56
2022-08-16T03:21:53.957Z,88.46
2022-08-16T03:22:53.946Z,88.26
2022-08-16T03:23:53.932Z,88.06
2022-08-16T03:24:53.938Z,88.06
2022-08-16T03:25:53.922Z,88.40
2022-08-16T03:26:53.977Z,88.56
2022-08-16T03:27:54.020Z,89.37
2022-08-16T03:28:53.986Z,88.81
2022-08-16T03:29:54.789Z,88.40
2022-08-16T03:30:55.374Z,88.50
2022-08-16T03:31:53.859Z,89.01
2022-08-16T03:32:53.958Z,89.52
2022-08-16T03:33:53.890Z,88.40
2022-08-16T03:34:53.941Z,89.36
2022-08-16T03:35:56.954Z,89.31
2022-08-16T03:36:53.868Z,89.22
2022-08-16T03:38:03.248Z,89.52
2022-08-16T03:38:54.828Z,89.83
2022-08-16T03:39:56.690Z,90.33
2022-08-16T03:40:53.771Z,90.13
2022-08-16T03:41:59.874Z,90.64
2022-08-16T03:43:18.951Z,90.23
2022-08-16T03:43:54.751Z,90.33
2022-08-16T03:45:03.430Z,90.29
2022-08-16T03:45:54.762Z,90.19
2022-08-16T03:46:53.716Z,89.62
2022-08-16T03:47:58.324Z,90.03
2022-08-16T03:48:53.720Z,89.72
2022-08-16T03:49:53.740Z,90.53
2022-08-16T03:51:00.087Z,90.29
2022-08-16T03:51:54.714Z,90.13
2022-08-16T03:52:59.613Z,89.22
2022-08-16T03:54:01.060Z,88.97
2022-08-16T03:54:59.406Z,87.99
2022-08-16T03:55:54.628Z,87.99
2022-08-16T03:56:56.797Z,88.10
2022-08-16T03:57:53.611Z,87.99
2022-08-16T03:58:53.610Z,88.20
2022-08-16T03:59:53.607Z,88.24
2022-08-16T04:00:59.041Z,88.65
2022-08-16T04:01:54.608Z,88.65
2022-08-16T04:02:53.570Z,88.54
2022-08-16T04:03:55.175Z,88.44
2022-08-16T04:04:53.639Z,88.34
2022-08-16T04:05:54.054Z,88.65
2022-08-16T04:06:53.789Z,89.15
2022-08-16T04:07:53.639Z,88.85
2022-08-16T04:08:53.603Z,89.76
2022-08-16T04:09:53.725Z,89.87
2022-08-16T04:10:53.633Z,89.56
2022-08-16T04:11:53.537Z,89.46
2022-08-16T04:12:59.354Z,88.95
2022-08-16T04:14:01.310Z,89.87
2022-08-16T04:14:58.389Z,89.76
2022-08-16T04:15:53.478Z,89.87
2022-08-16T04:16:53.424Z,90.37
2022-08-16T04:17:53.411Z,90.37
2022-08-16T04:18:53.424Z,89.62
2022-08-16T04:19:54.888Z,88.65
2022-08-16T04:20:53.409Z,88.75
2022-08-16T04:21:53.461Z,88.10
2022-08-16T04:22:53.419Z,87.84
2022-08-16T04:23:54.719Z,88.20
2022-08-16T04:24:54.803Z,87.93
2022-08-16T04:25:53.356Z,88.54
2022-08-16T04:26:53.327Z,88.65
2022-08-16T04:27:55.681Z,89.15
2022-08-16T04:29:16.350Z,89.05
2022-08-16T04:29:54.337Z,89.15
2022-08-16T04:30:54.293Z,88.44
2022-08-16T04:31:56.185Z,88.65
2022-08-16T04:32:53.310Z,88.13
2022-08-16T04:33:53.256Z,88.13
2022-08-16T04:34:53.670Z,87.93
2022-08-16T04:35:53.259Z,88.13
2022-08-16T04:36:53.282Z,87.93
2022-08-16T04:37:53.820Z,87.93
2022-08-16T04:38:53.253Z,88.24
2022-08-16T04:39:57.012Z,88.54
2022-08-16T04:40:54.358Z,88.24
2022-08-16T04:41:57.128Z,87.84
2022-08-16T04:42:53.205Z,88.13
2022-08-16T04:43:53.196Z,88.34
2022-08-16T04:44:55.331Z,88.65
2022-08-16T04:46:00.129Z,88.65
2022-08-16T04:47:02.960Z,88.75
2022-08-16T04:47:56.186Z,89.36
2022-08-16T04:48:53.265Z,90.07
2022-08-16T04:49:53.248Z,91.29
2022-08-16T04:50:53.040Z,90.99
2022-08-16T04:51:53.877Z,90.84
2022-08-16T04:52:53.305Z,91.14
2022-08-16T04:53:53.042Z,91.14
2022-08-16T04:54:53.070Z,91.14
2022-08-16T04:55:53.644Z,91.30
2022-08-16T04:56:53.092Z,90.49
2022-08-16T04:57:53.645Z,90.70
2022-08-16T04:58:53.059Z,90.70
2022-08-16T04:59:54.149Z,89.98
2022-08-16T05:00:53.163Z,89.37
2022-08-16T05:01:58.788Z,90.59
2022-08-16T05:02:55.628Z,90.29
2022-08-16T05:04:00.434Z,90.70
2022-08-16T05:04:54.009Z,90.70
2022-08-16T05:05:59.598Z,89.23
2022-08-16T05:06:54.039Z,88.36
2022-08-16T05:07:58.668Z,87.61
2022-08-16T05:08:56.432Z,87.34
2022-08-16T05:09:52.921Z,87.45
2022-08-16T05:10:52.897Z,88.16
2022-08-16T05:11:57.585Z,88.10
2022-08-16T05:12:52.887Z,88.16
2022-08-16T05:13:52.887Z,88.26
2022-08-16T05:15:02.094Z,88.16
2022-08-16T05:15:53.870Z,87.95
2022-08-16T05:16:52.840Z,87.34
2022-08-16T05:17:58.796Z,87.65
2022-08-16T05:18:53.822Z,87.55
2022-08-16T05:19:57.507Z,88.06
2022-08-16T05:21:01.802Z,87.85
2022-08-16T05:21:53.793Z,88.16
2022-08-16T05:22:53.052Z,88.87
2022-08-16T05:23:58.564Z,88.87
2022-08-16T05:24:54.950Z,89.58
2022-08-16T05:25:52.905Z,89.33
2022-08-16T05:26:52.839Z,89.33
2022-08-16T05:27:52.852Z,89.23
2022-08-16T05:28:55.798Z,89.13
2022-08-16T05:30:01.040Z,89.33
2022-08-16T05:30:53.881Z,89.13
2022-08-16T05:31:53.243Z,88.73
2022-08-16T05:32:52.888Z,88.93
2022-08-16T05:33:53.530Z,88.48
2022-08-16T05:34:52.756Z,89.09
2022-08-16T05:35:54.954Z,88.58
2022-08-16T05:36:52.641Z,88.78
2022-08-16T05:37:52.653Z,88.28
2022-08-16T05:38:52.621Z,88.38
2022-08-16T05:39:55.268Z,88.07
2022-08-16T05:40:59.724Z,87.93
2022-08-16T05:41:53.603Z,88.54
2022-08-16T05:42:52.733Z,88.84
2022-08-16T05:43:52.580Z,88.44
2022-08-16T05:44:53.624Z,88.23
2022-08-16T05:45:52.590Z,87.73
2022-08-16T05:46:52.546Z,88.29
2022-08-16T05:48:00.307Z,88.09
2022-08-16T05:48:54.708Z,88.40
2022-08-16T05:49:52.542Z,88.20
2022-08-16T05:50:52.978Z,87.79
2022-08-16T05:51:52.497Z,87.59
2022-08-16T05:52:52.481Z,87.79
2022-08-16T05:53:52.487Z,87.34
2022-08-16T05:54:58.443Z,86.94
2022-08-16T05:55:53.463Z,87.45
2022-08-16T05:56:52.434Z,87.54
2022-08-16T05:57:52.821Z,87.51
2022-08-16T05:58:52.431Z,87.24
2022-08-16T05:59:59.819Z,87.40
2022-08-16T06:00:53.420Z,87.10
2022-08-16T06:01:52.459Z,86.90
2022-08-16T06:02:52.399Z,86.96
2022-08-16T06:03:52.424Z,86.65
2022-08-16T06:04:52.408Z,86.05
2022-08-16T06:05:52.475Z,86.65
2022-08-16T06:06:56.974Z,86.82
2022-08-16T06:07:58.243Z,86.82
2022-08-16T06:08:53.381Z,86.37
2022-08-16T06:09:52.512Z,86.37
2022-08-16T06:11:02.629Z,86.16
2022-08-16T06:11:53.341Z,85.96
2022-08-16T06:12:55.359Z,85.93
2022-08-16T06:13:52.306Z,85.62
2022-08-16T06:14:52.309Z,85.17
2022-08-16T06:15:52.312Z,85.58
2022-08-16T06:16:52.274Z,85.78
2022-08-16T06:17:52.255Z,85.08
2022-08-16T06:18:52.253Z,85.28
2022-08-16T06:19:52.228Z,84.73
2022-08-16T06:20:55.089Z,84.73
2022-08-16T06:21:54.869Z,84.83
2022-08-16T06:22:58.658Z,84.43
2022-08-16T06:23:54.330Z,84.89
2022-08-16T06:24:54.447Z,84.49
2022-08-16T06:25:53.213Z,84.09
2022-08-16T06:26:57.866Z,83.64
2022-08-16T06:27:57.476Z,83.74
2022-08-16T06:28:53.136Z,83.24
2022-08-16T06:29:52.131Z,83.70
2022-08-16T06:30:52.222Z,83.00
2022-08-16T06:31:52.209Z,83.50
2022-08-16T06:32:52.429Z,83.16
2022-08-16T06:33:52.294Z,83.12
2022-08-16T06:34:56.707Z,82.01
2022-08-16T06:35:55.074Z,81.61
2022-08-16T06:36:59.364Z,81.51
2022-08-16T06:37:53.056Z,80.87
2022-08-16T06:38:55.375Z,80.22
2022-08-16T06:39:52.077Z,80.63
2022-08-16T06:40:52.027Z,79.88
2022-08-16T06:41:52.017Z,79.88
2022-08-16T06:42:57.141Z,79.18
2022-08-16T06:43:51.990Z,78.74
2022-08-16T06:44:51.983Z,79.44
2022-08-16T06:45:51.987Z,77.90
2022-08-16T06:46:51.925Z,77.59
2022-08-16T06:47:52.851Z,77.59
2022-08-16T06:48:52.004Z,77.56
2022-08-16T06:49:53.837Z,77.16
2022-08-16T06:50:52.068Z,76.56
2022-08-16T06:51:52.618Z,76.52
2022-08-16T06:53:00.223Z,76.76
2022-08-16T06:53:52.920Z,76.62
2022-08-16T06:54:51.973Z,75.42
2022-08-16T06:55:53.878Z,75.51
2022-08-16T06:56:54.207Z,76.12
2022-08-16T06:57:51.861Z,76.08
2022-08-16T06:58:51.985Z,75.38
2022-08-16T06:59:58.172Z,75.54
2022-08-16T07:00:51.903Z,75.34
2022-08-16T07:01:54.810Z,75.14
2022-08-16T07:02:52.295Z,74.94
2022-08-16T07:03:55.708Z,73.74
2022-08-16T07:04:52.888Z,73.90
2022-08-16T07:05:52.051Z,73.70
2022-08-16T07:06:51.802Z,73.86
2022-08-16T07:07:51.759Z,72.36
2022-08-16T07:08:51.718Z,72.06
2022-08-16T07:09:51.741Z,71.83
2022-08-16T07:10:51.847Z,71.93
2022-08-16T07:11:52.199Z,72.13
2022-08-16T07:13:03.873Z,71.89
2022-08-16T07:14:00.137Z,71.50
2022-08-16T07:14:52.689Z,70.19
2022-08-16T07:15:51.703Z,70.66
2022-08-16T07:16:51.756Z,70.66
2022-08-16T07:17:51.746Z,70.26
2022-08-16T07:18:59.097Z,70.26
2022-08-16T07:20:03.812Z,69.86
2022-08-16T07:20:52.681Z,69.26
2022-08-16T07:21:59.639Z,69.82
2022-08-16T07:22:53.114Z,69.93
2022-08-16T07:23:57.814Z,70.23
2022-08-16T07:24:52.562Z,69.93
2022-08-16T07:25:51.608Z,69.19
2022-08-16T07:26:51.525Z,68.09
2022-08-16T07:27:51.504Z,67.43
2022-08-16T07:28:51.601Z,67.19
2022-08-16T07:29:51.627Z,65.94
2022-08-16T07:30:51.555Z,64.41
2022-08-16T07:31:51.545Z,63.18
2022-08-16T07:32:52.088Z,61.66
2022-08-16T07:33:54.862Z,61.69
2022-08-16T07:34:51.503Z,60.44
2022-08-16T07:35:51.503Z,59.25
2022-08-16T07:36:58.229Z,59.55
2022-08-16T07:37:51.412Z,58.95
2022-08-16T07:38:51.522Z,59.25
2022-08-16T07:39:51.571Z,60.05
2022-08-16T07:40:59.747Z,59.48
2022-08-16T07:41:52.432Z,60.38
2022-08-16T07:42:51.420Z,61.20
2022-08-16T07:43:51.414Z,61.20
2022-08-16T07:44:51.407Z,61.40
2022-08-16T07:45:53.251Z,61.33
2022-08-16T07:46:55.536Z,61.25
2022-08-16T07:47:51.495Z,61.99
2022-08-16T07:48:51.407Z,63.28
2022-08-16T07:49:52.863Z,62.98
2022-08-16T07:50:55.740Z,62.38
2022-08-16T07:51:55.918Z,62.71
2022-08-16T07:52:51.461Z,62.59
2022-08-16T07:54:02.526Z,62.75
2022-08-16T07:54:53.323Z,62.05
2022-08-16T07:55:51.424Z,61.69
2022-08-16T07:56:51.363Z,59.98
2022-08-16T07:58:00.659Z,58.95
2022-08-16T07:58:55.625Z,58.03
2022-08-16T07:59:52.274Z,56.61
2022-08-16T08:00:51.551Z,55.91
2022-08-16T08:01:53.024Z,56.81
2022-08-16T08:02:52.052Z,55.99
2022-08-16T08:03:51.249Z,56.49
2022-08-16T08:04:51.196Z,56.26
2022-08-16T08:05:51.223Z,54.85
2022-08-16T08:06:51.378Z,54.02
2022-08-16T08:07:51.446Z,54.22
2022-08-16T08:08:52.782Z,54.85
2022-08-16T08:09:51.166Z,55.04
2022-08-16T08:10:51.249Z,54.75
2022-08-16T08:12:00.941Z,53.88
2022-08-16T08:12:52.321Z,54.87
2022-08-16T08:13:51.339Z,55.96
2022-08-16T08:14:51.163Z,55.66
2022-08-16T08:15:53.098Z,55.76
2022-08-16T08:16:51.142Z,55.27
2022-08-16T08:17:51.237Z,55.17
2022-08-16T08:18:56.136Z,55.66
2022-08-16T08:19:53.326Z,55.47
2022-08-16T08:20:59.560Z,54.64
2022-08-16T08:21:59.118Z,54.17
2022-08-16T08:22:52.024Z,55.34
2022-08-16T08:23:51.020Z,54.62
2022-08-16T08:24:51.006Z,54.20
2022-08-16T08:25:52.743Z,53.50
2022-08-16T08:26:51.005Z,51.52
2022-08-16T08:27:50.980Z,52.69
2022-08-16T08:28:51.966Z,51.28
2022-08-16T08:30:43.955Z,51.15
2022-08-16T08:31:02.743Z,50.36
2022-08-16T08:31:51.962Z,50.95
2022-08-16T08:32:59.736Z,49.32
2022-08-16T08:33:52.147Z,48.31
2022-08-16T08:34:50.913Z,47.79
2022-08-16T08:35:51.291Z,48.16
2022-08-16T08:36:54.418Z,47.03
2022-08-16T08:37:55.280Z,46.62
2022-08-16T08:38:51.903Z,45.83
2022-08-16T08:39:55.218Z,44.27
2022-08-16T08:40:50.954Z,44.55
2022-08-16T08:41:51.742Z,44.55
2022-08-16T08:42:50.882Z,44.53
2022-08-16T08:43:51.971Z,45.39
2022-08-16T08:44:50.839Z,42.91
2022-08-16T08:45:53.011Z,42.57
2022-08-16T08:46:59.799Z,43.24
2022-08-16T08:47:54.299Z,41.63
2022-08-16T08:49:00.084Z,41.58
2022-08-16T08:49:55.890Z,40.78
2022-08-16T08:50:51.759Z,39.56
2022-08-16T08:51:50.799Z,39.23
2022-08-16T08:52:50.914Z,38.34
2022-08-16T08:53:57.961Z,37.62
2022-08-16T08:54:51.669Z,36.41
2022-08-16T08:55:58.751Z,34.44
2022-08-16T08:56:50.717Z,34.69
2022-08-16T08:57:50.647Z,33.51
2022-08-16T08:58:54.800Z,33.31
2022-08-16T08:59:51.681Z,33.02
2022-08-16T09:00:51.640Z,32.82
2022-08-16T09:01:56.793Z,32.94
2022-08-16T09:02:52.199Z,34.42
2022-08-16T09:03:50.697Z,34.03
2022-08-16T09:04:50.646Z,34.11
2022-08-16T09:05:51.650Z,34.21
2022-08-16T09:06:50.671Z,34.29
2022-08-16T09:08:00.631Z,33.39
2022-08-16T09:08:51.635Z,32.81
2022-08-16T09:09:50.677Z,34.36
2022-08-16T09:11:02.241Z,35.84
2022-08-16T09:12:04.025Z,35.27
2022-08-16T09:12:51.843Z,35.30
2022-08-16T09:13:51.137Z,37.47
2022-08-16T09:14:51.287Z,36.38
2022-08-16T09:15:50.578Z,36.16
2022-08-16T09:17:02.798Z,34.09
2022-08-16T09:17:53.516Z,33.89
2022-08-16T09:18:54.902Z,34.36
2022-08-16T09:19:55.177Z,33.23
2022-08-16T09:20:58.876Z,33.53
2022-08-16T09:21:56.018Z,33.31
2022-08-16T09:22:51.330Z,32.29
2022-08-16T09:23:50.487Z,32.45
2022-08-16T09:24:52.041Z,32.15
2022-08-16T09:25:50.635Z,30.02
2022-08-16T09:26:52.460Z,32.43
2022-08-16T09:27:57.792Z,32.82
2022-08-16T09:29:14.722Z,33.18
2022-08-16T09:29:59.892Z,31.90
2022-08-16T09:30:51.411Z,31.00
2022-08-16T09:31:53.529Z,30.79
2022-08-16T09:32:50.654Z,30.27
2022-08-16T09:33:51.975Z,30.24
2022-08-16T09:34:50.413Z,29.84
2022-08-16T09:35:53.111Z,29.15
2022-08-16T09:36:54.635Z,29.43
2022-08-16T09:38:00.640Z,28.85
2022-08-16T09:38:51.311Z,29.13
2022-08-16T09:39:51.407Z,28.68
2022-08-16T09:40:50.420Z,28.50
2022-08-16T09:41:53.559Z,30.02
2022-08-16T09:43:05.275Z,28.23
2022-08-16T09:43:58.009Z,26.87
2022-08-16T09:45:11.854Z,26.97
2022-08-16T09:45:51.290Z,27.25
2022-08-16T09:46:52.864Z,28.36
2022-08-16T09:47:57.320Z,27.47
2022-08-16T09:48:51.303Z,27.26
2022-08-16T09:49:51.046Z,26.95
2022-08-16T09:50:50.248Z,25.19
2022-08-16T09:51:50.413Z,26.26
2022-08-16T09:52:50.459Z,27.66
2022-08-16T09:53:54.014Z,28.59
2022-08-16T09:54:50.254Z,29.19
2022-08-16T09:55:50.360Z,29.17
2022-08-16T09:56:53.318Z,28.45
2022-08-16T09:57:52.948Z,27.17
2022-08-16T09:59:05.525Z,25.98
2022-08-16T09:59:56.379Z,25.31
2022-08-16T10:00:51.217Z,25.72
2022-08-16T10:01:50.200Z,26.04
2022-08-16T10:02:50.286Z,27.20
2022-08-16T10:04:02.773Z,27.10
2022-08-16T10:04:54.622Z,26.89
2022-08-16T10:05:50.118Z,26.81
2022-08-16T10:06:50.210Z,27.36
2022-08-16T10:07:50.536Z,25.70
2022-08-16T10:09:05.375Z,25.81
2022-08-16T10:09:55.797Z,25.86
2022-08-16T10:10:51.154Z,24.69
2022-08-16T10:11:51.157Z,25.19
2022-08-16T10:12:56.057Z,25.96
2022-08-16T10:13:51.232Z,24.97
2022-08-16T10:14:50.242Z,26.97
2022-08-16T10:15:55.427Z,28.30
2022-08-16T10:16:51.040Z,29.41
2022-08-16T10:18:00.396Z,30.30
2022-08-16T10:19:00.656Z,29.28
2022-08-16T10:19:51.007Z,27.87
2022-08-16T10:20:50.022Z,27.37
2022-08-16T10:21:56.562Z,27.08
2022-08-16T10:22:55.412Z,26.75
2022-08-16T10:23:50.976Z,26.54
2022-08-16T10:24:55.573Z,26.91
2022-08-16T10:27:00.758Z,25.18
2022-08-16T10:27:20.324Z,25.96
2022-08-16T10:27:56.802Z,25.35
2022-08-16T10:28:51.185Z,24.48
2022-08-16T10:30:00.098Z,24.66
2022-08-16T10:30:56.605Z,23.98
2022-08-16T10:31:53.226Z,24.63
2022-08-16T10:32:50.031Z,24.71
2022-08-16T10:33:49.985Z,24.79
2022-08-16T10:34:51.390Z,23.54
2022-08-16T10:35:49.971Z,23.43
2022-08-16T10:36:54.367Z,23.03
2022-08-16T10:37:50.175Z,23.58
2022-08-16T10:38:49.902Z,22.11
2022-08-16T10:39:49.966Z,22.20
2022-08-16T10:40:50.839Z,21.15
2022-08-16T10:41:49.858Z,20.89
2022-08-16T10:42:50.398Z,22.32
2022-08-16T10:43:50.278Z,21.06
2022-08-16T10:44:53.779Z,21.95
2022-08-16T10:45:57.191Z,22.24
2022-08-16T10:46:50.900Z,22.25
2022-08-16T10:48:03.194Z,21.95
2022-08-16T10:48:50.862Z,22.66
2022-08-16T10:49:49.955Z,23.65
2022-08-16T10:50:49.813Z,24.34
2022-08-16T10:52:03.272Z,23.20
2022-08-16T10:52:52.707Z,24.45
2022-08-16T10:53:49.846Z,23.49
2022-08-16T10:55:57.857Z,22.09
2022-08-16T10:56:55.539Z,22.17
2022-08-16T10:57:50.908Z,22.25
2022-08-16T10:58:49.709Z,20.98
2022-08-16T10:59:53.203Z,21.03
2022-08-16T11:00:55.471Z,22.67
2022-08-16T11:02:59.982Z,22.09
2022-08-16T11:03:54.546Z,23.50
2022-08-16T11:05:08.045Z,24.63
2022-08-16T11:06:07.440Z,25.43
2022-08-16T11:07:54.885Z,24.54
2022-08-16T11:09:21.017Z,24.81
2022-08-16T11:09:50.672Z,24.26
2022-08-16T11:11:11.364Z,24.62
2022-08-16T11:12:52.702Z,24.35
2022-08-16T11:13:58.066Z,22.96
2022-08-16T11:15:55.487Z,24.09
2022-08-16T11:17:11.040Z,23.11
2022-08-16T11:18:36.724Z,22.90
2022-08-16T11:19:05.345Z,23.27
2022-08-16T11:20:50.632Z,22.36
2022-08-16T11:22:50.652Z,22.04
2022-08-16T11:23:56.988Z,21.30
2022-08-16T11:25:11.965Z,22.25
2022-08-16T11:26:07.060Z,22.14
2022-08-16T11:27:18.718Z,21.00
2022-08-16T11:27:50.664Z,22.32
2022-08-16T11:29:52.091Z,21.81
2022-08-16T11:30:57.413Z,22.48
2022-08-16T11:31:54.300Z,22.16
2022-08-16T11:32:49.642Z,21.18
2022-08-16T11:33:53.097Z,21.28
2022-08-16T11:35:13.299Z,21.97
2022-08-16T11:36:53.690Z,22.47
2022-08-16T11:38:06.077Z,22.67
2022-08-16T11:38:55.749Z,23.25
2022-08-16T11:39:55.257Z,22.86
2022-08-16T11:40:52.327Z,22.08
2022-08-16T11:41:49.420Z,21.31
2022-08-16T11:42:49.407Z,21.56
2022-08-16T11:43:49.377Z,20.38
2022-08-16T11:44:56.283Z,20.55
2022-08-16T11:45:53.600Z,19.56
2022-08-16T11:46:49.363Z,19.25
2022-08-16T11:47:49.855Z,18.57
2022-08-16T11:48:49.348Z,19.48
2022-08-16T11:49:49.388Z,20.49
2022-08-16T11:50:49.371Z,21.30
2022-08-16T11:51:49.317Z,21.08
2022-08-16T11:52:49.375Z,20.39
2022-08-16T11:53:49.312Z,20.09
2022-08-16T11:54:53.823Z,19.60
2022-08-16T11:55:50.659Z,19.51
2022-08-16T11:56:56.621Z,21.30
2022-08-16T11:57:50.560Z,21.61
2022-08-16T11:58:51.678Z,21.21
2022-08-16T11:59:50.266Z,21.36
2022-08-16T12:00:51.985Z,21.15
2022-08-16T12:01:58.962Z,20.26
2022-08-16T12:02:50.461Z,19.40
2022-08-16T12:03:49.452Z,19.62
2022-08-16T12:04:51.623Z,20.29
2022-08-16T12:05:52.020Z,19.70
2022-08-16T12:06:49.290Z,20.35
2022-08-16T12:07:49.660Z,18.26
2022-08-16T12:08:49.222Z,19.47
2022-08-16T12:09:49.199Z,19.47
2022-08-16T12:10:49.197Z,18.05
2022-08-16T12:11:53.200Z,20.81
2022-08-16T12:12:49.221Z,22.52
2022-08-16T12:13:49.248Z,23.18
2022-08-16T12:14:50.561Z,24.18
2022-08-16T12:15:49.219Z,24.79
2022-08-16T12:16:55.278Z,25.81
2022-08-16T12:17:50.416Z,25.63
2022-08-16T12:19:49.138Z,25.79
2022-08-16T12:20:49.112Z,24.07
2022-08-16T12:21:58.092Z,22.93
2022-08-16T12:22:50.178Z,21.91
2022-08-16T12:23:49.365Z,21.28
2022-08-16T12:24:52.093Z,20.47
2022-08-16T12:25:49.080Z,18.90
2022-08-16T12:26:49.168Z,17.35
2022-08-16T12:27:49.750Z,16.67
2022-08-16T12:28:54.830Z,17.23
2022-08-16T12:29:50.054Z,17.82
2022-08-16T12:30:49.043Z,17.26
2022-08-16T12:31:59.268Z,17.68
2022-08-16T12:32:51.601Z,19.13
2022-08-16T12:33:50.789Z,18.25
2022-08-16T12:34:52.846Z,18.33
2022-08-16T12:35:49.103Z,18.54
2022-08-16T12:36:49.201Z,18.35
2022-08-16T12:37:49.064Z,18.06
2022-08-16T12:38:50.066Z,18.64
2022-08-16T12:39:51.025Z,18.55
2022-08-16T12:40:48.989Z,19.42
2022-08-16T12:41:48.972Z,19.62
2022-08-16T12:42:52.947Z,19.45
2022-08-16T12:43:48.970Z,19.08
2022-08-16T12:44:48.951Z,19.53
2022-08-16T12:45:48.936Z,18.07
2022-08-16T12:46:48.977Z,18.15
2022-08-16T12:47:48.921Z,19.01
2022-08-16T12:48:48.982Z,17.98
2022-08-16T12:49:48.918Z,18.54
2022-08-16T12:50:50.198Z,17.77
2022-08-16T12:51:58.105Z,18.25
2022-08-16T12:52:52.252Z,17.10
2022-08-16T12:53:48.898Z,17.10
2022-08-16T12:54:54.984Z,17.77
2022-08-16T12:55:49.814Z,18.19
2022-08-16T12:56:50.298Z,19.06
2022-08-16T12:57:58.073Z,18.57
2022-08-16T12:58:51.812Z,17.79
2022-08-16T12:59:49.101Z,18.35
2022-08-16T13:00:50.267Z,16.60
2022-08-16T13:01:50.225Z,16.78